Bairoil, Wyoming
Current Conditions -  °F | °C
As of 5:53 AM on Friday 28 Nov 2014 (Local Time) from KRWL Reporting Station
Clear Clear  
Wind Chill: 33°   Ceiling: Unl
Heat Index: 42°   Visibility: 10mi
Dew Point: 15°   Wind: 21mph
Humidity: 34%   Direction: 260°W
Pressure: 30.01"   Gusts: 30mph
Location:  42.24°N, 107.56°W
Report Text: KRWL 281253Z AUTO 26018G26KT 10SM CLR 06/M09 A3001 RMK AO2 PK WND 26028/1202 SLP134 T00561094
Loading
Personal Weather Stations






























Interactive Weather Map New forecast layout! Learn more

10-Day Weather Forecast

Advertisements
Track Severe Weather on mobile